Lafayette, LA (70596)

12:18 AM CDT on July 27, 2016 (GMT -0500)
Downtown | | Change Station

Elev 56 ft 30.22 °N, 92.02 °W | Updated 32 seconds ago

Overcast
Overcast
79.3 °F
Feels Like 84 °F
N
2.0
Wind Variable Wind from SW
Gusts 2.5 mph

Today
High -- | Low -- °F
--% Chance of Precip.
Yesterday
High -- | Low -- °F
Precip. -- in
Pressure 29.95 in
Visibility 10.0 miles
Clouds Scattered Clouds 2400 ft
Mostly Cloudy 3800 ft
Overcast 7500 ft
Heat Index 84 °F
Dew Point 76 °F
Humidity 88%
Rainfall 0.00 in
Snow Depth Not available.
6:23 AM 8:04 PM
Waning Gibbous, 47% visible
METAR KLFT 270453Z AUTO 22008KT 10SM SCT024 BKN038 OVC075 26/23 A2995 RMK AO2 RAB20E35 SLP142 P0000 T02610233 $
Pressure 29.95 in
Visibility 10.0 miles
Clouds Scattered Clouds 2400 ft
Mostly Cloudy 3800 ft
Overcast 7500 ft
Heat Index 84 °F
Dew Point 76 °F
Humidity 88%
Rainfall 0.00 in
Snow Depth Not available.
6:23 AM 8:04 PM
Waning Gibbous, 47% visible
METAR KLFT 270453Z AUTO 22008KT 10SM SCT024 BKN038 OVC075 26/23 A2995 RMK AO2 RAB20E35 SLP142 P0000 T02610233 $

10-Day Weather Forecast

Almanac

Astronomy

Jul. 27, 2016 Rise Set
Actual Time
Civil Twilight
Nautical Twilight
Astronomical Twilight
Moon
Length of Visible Light
Length of Day
Tomorrow will be .
, % of the Moon is Illuminated

Today's Extremes

State Highs State Lows

Community

WunderPhotos

Upload Photos

1,927,814 photos uploaded!

WunderBlog® & News

Nearby

Air Quality

  Air Quality AQ Index Pollutant
Not available.

Snow Depth

Station Depth Elevation

Earthquake Activity

City Distance Mag. Time & Date
Minimum magnitude displayed is 2.5.

Coastal Water Temperatures

Place Temperature

Stations

Nearby Weather Stations

Station Location Temp. Windchill Dew Point Humidity Wind Precip. Elev Updated Type
                   

Watches & Warnings

There are currently no watches in effect.